Aérodrome :
LOGIN :

S'inscrire | Disclaimer

   EN    FR    IT 

 










Légende :    VFR   VFR Marginal   IFR   IFR Intensif   IFR Très Intensif
Visi : 
Plafond : 
>= 8 km
>= 3000ft
5 à 8 km
1000 à 3000 ft
1500m à 5 km
500 à 1000 ft
800 à 1500m
200 à 500 ft
< 800m
< 200 ft
Symboles :   Orages  Brouillard  Fortes neiges  Fortes précipitations  Vent > 20 kt
SIGMETs :   Divers  Orages  Givrage  Turbulence  Onde Orograph.  Cendres Volcan.







- Altitude de l'aérodrome : 46 ft
- Code IATA : SNN


EINN - Shannon

DERNIER METAR :
  • 181500Z 26013KT 9999 FEW020CB BKN060 18/12 Q1010 NOSIG

METARs EXPIRÉS :
  • 181430Z 24016KT 9999 FEW020CB SCT026 BKN060 18/11 Q1010 NOSIG
  • 181400Z 25013KT 220V290 9999 FEW026 BKN060 19/11 Q1010 NOSIG
  • 181330Z 24014KT 9999 FEW026 BKN060 19/12 Q1010 NOSIG
  • 181300Z 26014KT 9999 FEW025 BKN060 18/11 Q1010 NOSIG
  • 181230Z 26014KT 230V300 9999 FEW025 BKN050 18/11 Q1010 NOSIG

TAF TAF EINN
Valide du 18 à 12h jusqu'au 19 à 12h UTC


181100Z 1812/1912 26010KT 9999 SCT035
TEMPO 1812/1816 SCT018CB
BECMG 1820/1822 VRB03KT
BECMG 1900/1903 12010KT
BECMG 1902/1905 4000 -RA BKN010
TEMPO 1906/1910 2000 RA BKN007
BECMG 1907/1909 19010KT
BECMG 1910/1912 9999 NSW SCT015 BKN030
Pas de NOTAMs connus pour ce terrain.



MET'MAP, la Météo Aéronautique d'un coup d'oeil ! - Copyright ORBIFLY Décembre 2007 - Disclaimer

ORBIFLY MET'MAP TEAM :

Programmation & Développement : Alexandra Zaïnal
Conception & Développement : Baudouin d'Aumeries
Co-Programmation & Développement : Marc-Olivier Méhu
Soutien technique & logistique : Manuel Goepfert

Contact : metmap@orbifly.com




SOURCES & CREDITS :

   NOAA